Time;durP1;ratioP1;P1;durP2;ratioP2;P2;SDS_P1;SDS_P2;PMS_P1;PMS_P2;Temp;Humidity;BMP_temperature;BMP_pressure;BME280_temperature;BME280_humidity;BME280_pressure;Samples;Min_cycle;Max_cycle;Signal;HPM_P1;HPM_P2
2022/02/21 00:00:24;;;;;;;11.87;4.23;;;;;;;12.70;61.50;101854.31;5023199;28;20518;-79
2022/02/21 00:02:53;;;;;;;20.30;4.40;;;;;;;12.78;61.72;101861.41;5009393;28;20045;-79
2022/02/21 00:05:21;;;;;;;21.13;4.33;;;;;;;12.54;61.77;101824.41;5014568;28;20114;-80
2022/02/21 00:07:48;;;;;;;13.43;4.50;;;;;;;12.81;61.79;101860.88;5009877;28;20137;-79
2022/02/21 00:10:21;;;;;;;15.70;5.10;;;;;;;12.63;61.61;101824.81;5013319;28;20054;-78
2022/02/21 00:12:50;;;;;;;14.53;3.30;;;;;;;12.80;61.61;101850.78;5012907;28;20418;-78
2022/02/21 00:15:17;;;;;;;12.60;3.50;;;;;;;12.87;61.54;101859.81;5027337;28;20092;-77
2022/02/21 00:17:45;;;;;;;23.03;4.63;;;;;;;12.83;61.49;101853.06;5008589;28;20166;-80
2022/02/21 00:20:12;;;;;;;13.27;3.20;;;;;;;12.57;61.08;101829.50;5008705;28;20144;-78
2022/02/21 00:22:39;;;;;;;15.17;4.70;;;;;;;12.69;61.48;101852.63;5014630;28;20128;-78
2022/02/21 00:25:07;;;;;;;11.87;4.37;;;;;;;12.72;61.74;101868.94;5032991;28;20081;-79
2022/02/21 00:27:34;;;;;;;23.27;7.07;;;;;;;12.76;61.57;101877.66;5014593;28;20168;-80
2022/02/21 00:30:03;;;;;;;15.37;4.43;;;;;;;12.39;61.44;101824.25;5018889;28;20077;-79
2022/02/21 00:32:30;;;;;;;23.43;5.40;;;;;;;12.72;61.60;101896.13;5026093;28;20803;-79
2022/02/21 00:34:57;;;;;;;15.80;5.63;;;;;;;12.61;61.58;101886.72;5015359;28;20545;-78
2022/02/21 00:37:28;;;;;;;17.20;5.77;;;;;;;12.68;61.16;101906.13;5028315;28;20084;-78
2022/02/21 00:39:55;;;;;;;25.10;6.20;;;;;;;12.65;61.60;101895.44;5021046;28;20450;-78
2022/02/21 00:42:24;;;;;;;15.07;4.73;;;;;;;12.38;61.44;101856.19;5029030;28;20130;-78
2022/02/21 00:44:57;;;;;;;16.67;6.13;;;;;;;12.35;61.56;101851.94;5013602;28;20057;-78
2022/02/21 00:47:28;;;;;;;24.43;5.17;;;;;;;12.54;61.70;101895.31;5013844;28;20053;-78
2022/02/21 00:49:56;;;;;;;14.63;5.17;;;;;;;12.46;61.50;101884.56;5014675;28;20053;-79
2022/02/21 00:52:30;;;;;;;17.63;6.00;;;;;;;12.16;61.39;101825.34;5022744;28;20050;-78
2022/02/21 00:54:57;;;;;;;14.57;5.30;;;;;;;12.43;61.35;101865.47;5012616;28;20108;-79
2022/02/21 00:57:26;;;;;;;21.00;5.07;;;;;;;12.23;61.32;101831.59;5015946;28;20049;-78
2022/02/21 00:59:53;;;;;;;20.60;5.77;;;;;;;11.67;61.48;101747.72;5015175;28;20085;-77
2022/02/21 01:02:26;;;;;;;26.20;6.37;;;;;;;12.36;61.55;101850.81;5011293;28;20049;-79
2022/02/21 01:04:53;;;;;;;12.50;4.80;;;;;;;12.33;61.52;101838.19;5026816;28;20096;-79
2022/02/21 01:07:20;;;;;;;18.33;5.70;;;;;;;12.25;61.45;101813.44;5016158;28;20436;-77
2022/02/21 01:09:47;;;;;;;21.50;5.73;;;;;;;12.27;61.40;101805.63;5015997;28;20042;-77
2022/02/21 01:12:14;;;;;;;24.37;5.57;;;;;;;12.12;61.34;101773.78;5008507;28;20471;-78
2022/02/21 01:14:41;;;;;;;22.83;6.07;;;;;;;12.28;61.44;101795.28;5027072;28;20081;-79
2022/02/21 01:17:08;;;;;;;20.07;5.80;;;;;;;12.22;61.32;101805.56;5029030;28;20081;-77
2022/02/21 01:19:35;;;;;;;12.53;5.10;;;;;;;12.19;61.79;101797.69;5022524;28;20128;-78
2022/02/21 01:22:03;;;;;;;19.20;6.20;;;;;;;11.96;62.03;101767.97;5026734;28;20045;-77
2022/02/21 01:24:31;;;;;;;17.47;4.90;;;;;;;12.01;62.11;101784.03;5024846;28;20429;-78
2022/02/21 01:26:58;;;;;;;20.37;5.73;;;;;;;12.17;62.16;101815.84;5030082;28;20080;-78
2022/02/21 01:29:25;;;;;;;21.17;4.90;;;;;;;12.22;62.14;101813.97;5020542;28;20084;-78
2022/02/21 01:31:54;;;;;;;15.13;5.03;;;;;;;12.11;62.07;101802.91;5023761;28;20394;-78
2022/02/21 01:34:23;;;;;;;16.17;5.37;;;;;;;12.08;61.98;101805.09;5021002;28;20054;-79
2022/02/21 01:36:53;;;;;;;18.33;5.63;;;;;;;12.07;61.83;101817.41;5028502;28;20037;-77
2022/02/21 01:39:20;;;;;;;16.30;5.57;;;;;;;12.17;61.92;101838.25;5035391;28;20030;-78
2022/02/21 01:41:47;;;;;;;12.57;5.23;;;;;;;12.11;61.83;101828.09;5038245;28;20045;-76
2022/02/21 01:44:15;;;;;;;13.77;5.10;;;;;;;12.10;62.00;101827.22;5039763;28;20050;-78
2022/02/21 01:46:43;;;;;;;15.50;5.80;;;;;;;12.09;61.97;101837.59;5047583;28;20041;-77
2022/02/21 01:49:12;;;;;;;15.67;6.10;;;;;;;12.04;61.97;101831.94;5032570;28;20061;-77
2022/02/21 01:51:39;;;;;;;10.75;3.38;;;;;;;12.09;61.79;101836.75;5034310;28;20070;-76
2022/02/21 01:54:08;;;;;;;12.90;4.33;;;;;;;11.99;62.03;101811.41;5038860;28;20490;-78
2022/02/21 01:56:36;;;;;;;23.67;5.67;;;;;;;11.98;61.83;101806.94;5036497;28;20061;-77
2022/02/21 01:59:04;;;;;;;12.93;4.23;;;;;;;11.69;62.23;101770.69;5019076;28;20522;-77
2022/02/21 02:01:31;;;;;;;29.73;5.63;;;;;;;12.01;62.18;101812.84;5018555;28;20081;-77
2022/02/21 02:04:00;;;;;;;13.20;3.37;;;;;;;11.97;62.13;101800.50;5016169;28;20056;-78
2022/02/21 02:06:29;;;;;;;15.40;3.30;;;;;;;11.91;61.94;101787.53;5013098;28;20132;-79
2022/02/21 02:08:57;;;;;;;15.73;4.70;;;;;;;12.14;62.16;101833.19;5011935;28;20081;-76
2022/02/21 02:11:26;;;;;;;18.47;4.60;;;;;;;11.95;62.12;101802.69;5012767;28;20129;-77
2022/02/21 02:13:55;;;;;;;14.53;3.90;;;;;;;12.11;62.15;101814.94;5013465;28;20658;-79
2022/02/21 02:16:23;;;;;;;16.17;4.43;;;;;;;12.13;61.96;101809.06;5017316;28;20050;-79
2022/02/21 02:18:50;;;;;;;13.70;4.37;;;;;;;12.12;62.29;101811.03;5013279;28;20049;-79
2022/02/21 02:21:23;;;;;;;17.47;4.80;;;;;;;12.11;62.19;101798.16;5012692;28;20057;-78
2022/02/21 02:23:51;;;;;;;8.50;3.57;;;;;;;12.12;62.04;101802.63;5008837;28;20046;-77
2022/02/21 02:26:24;;;;;;;9.23;3.73;;;;;;;11.99;62.28;101787.06;5008012;28;20096;-77
2022/02/21 02:28:52;;;;;;;15.83;4.47;;;;;;;12.09;62.31;101806.78;5013157;28;20128;-78
2022/02/21 02:31:19;;;;;;;22.63;5.37;;;;;;;12.09;62.36;101804.00;5006157;28;20104;-78
2022/02/21 02:33:46;;;;;;;21.33;6.07;;;;;;;11.96;62.37;101765.19;5010539;28;20085;-77
2022/02/21 02:36:13;;;;;;;8.20;2.93;;;;;;;12.14;62.52;101791.19;5007210;28;20085;-77
2022/02/21 02:38:41;;;;;;;19.13;3.60;;;;;;;12.14;62.68;101794.84;5007272;28;20130;-77
2022/02/21 02:41:09;;;;;;;14.30;3.50;;;;;;;12.16;62.68;101783.34;5019591;28;20074;-79
2022/02/21 02:43:37;;;;;;;16.87;4.33;;;;;;;12.25;62.51;101784.59;5014579;28;20049;-78
2022/02/21 02:46:04;;;;;;;15.80;4.17;;;;;;;11.94;62.45;101728.22;5018343;28;20077;-79
2022/02/21 02:48:32;;;;;;;21.80;3.70;;;;;;;12.30;62.54;101770.63;5003272;28;20136;-79
2022/02/21 02:50:59;;;;;;;15.03;3.93;;;;;;;12.14;62.43;101754.78;5010644;28;21433;-79
2022/02/21 02:53:28;;;;;;;9.47;3.77;;;;;;;12.30;62.42;101781.84;5002780;28;20093;-79
2022/02/21 02:55:58;;;;;;;11.40;3.70;;;;;;;12.20;62.14;101764.91;5008924;28;20131;-78
2022/02/21 02:58:26;;;;;;;9.90;3.70;;;;;;;12.05;62.05;101740.38;5028241;28;20108;-79
2022/02/21 03:00:55;;;;;;;14.90;4.03;;;;;;;12.09;62.22;101748.00;5024749;28;20046;-80
2022/02/21 03:03:22;;;;;;;16.60;5.00;;;;;;;11.20;62.11;101605.53;5013302;28;20056;-79
2022/02/21 03:05:49;;;;;;;17.77;5.03;;;;;;;11.65;62.07;101679.94;5012559;28;20046;-79
2022/02/21 03:08:16;;;;;;;16.73;4.20;;;;;;;12.17;61.94;101771.03;5012142;28;20046;-79
2022/02/21 03:10:43;;;;;;;15.83;4.13;;;;;;;12.11;62.16;101756.16;5005821;28;20082;-78
2022/02/21 03:13:10;;;;;;;12.97;4.43;;;;;;;11.94;62.19;101727.38;5000090;28;20050;-79
2022/02/21 03:15:37;;;;;;;15.00;4.90;;;;;;;12.08;62.12;101763.09;5017307;28;20065;-78
2022/02/21 03:18:05;;;;;;;15.40;4.03;;;;;;;12.05;62.02;101766.44;5008098;28;20142;-79
2022/02/21 03:20:32;;;;;;;11.10;4.17;;;;;;;12.01;61.93;101779.25;5020932;28;20133;-78
2022/02/21 03:22:59;;;;;;;12.30;4.10;;;;;;;11.97;61.86;101780.06;5021971;28;20056;-79
2022/02/21 03:25:26;;;;;;;22.37;4.97;;;;;;;11.81;61.95;101770.56;5010032;28;20047;-78
2022/02/21 03:27:53;;;;;;;16.23;4.70;;;;;;;11.83;61.93;101785.16;5004174;28;20077;-79
2022/02/21 03:30:20;;;;;;;14.53;6.13;;;;;;;11.79;61.85;101781.16;5002277;28;20081;-79
2022/02/21 03:32:47;;;;;;;17.63;4.60;;;;;;;11.75;61.73;101785.59;5015549;28;20128;-80
2022/02/21 03:35:14;;;;;;;13.43;4.20;;;;;;;11.72;62.03;101780.50;5007908;28;20082;-79
2022/02/21 03:37:41;;;;;;;9.60;3.23;;;;;;;11.70;62.01;101774.34;5000464;28;20125;-78
2022/02/21 03:40:09;;;;;;;12.17;4.10;;;;;;;11.49;62.36;101737.66;5010661;28;20041;-78
2022/02/21 03:42:36;;;;;;;18.90;4.97;;;;;;;11.55;62.15;101746.97;5039621;28;20076;-79
2022/02/21 03:45:05;;;;;;;14.10;3.87;;;;;;;11.62;62.19;101754.09;5024241;28;20346;-79
2022/02/21 03:47:33;;;;;;;8.48;3.60;;;;;;;11.48;62.31;101740.72;5021217;28;20074;-78
2022/02/21 03:50:00;;;;;;;16.07;4.03;;;;;;;11.25;62.30;101699.84;5015187;28;20050;-79
2022/02/21 03:52:36;;;;;;;18.53;5.20;;;;;;;11.58;62.11;101764.06;5023379;28;20122;-79
2022/02/21 03:55:04;;;;;;;12.63;3.70;;;;;;;11.20;62.43;101688.56;5018141;28;20049;-79
2022/02/21 03:57:31;;;;;;;11.20;3.30;;;;;;;10.59;62.23;101588.72;5012943;28;20058;-77
2022/02/21 03:59:58;;;;;;;14.83;4.10;;;;;;;11.40;62.31;101722.44;5012307;28;20081;-78
2022/02/21 04:02:27;;;;;;;12.33;4.40;;;;;;;11.55;62.66;101731.03;5014125;28;20050;-78
2022/02/21 04:04:54;;;;;;;8.13;3.95;;;;;;;11.30;62.60;101691.50;5014554;28;20523;-78
2022/02/21 04:07:21;;;;;;;15.20;4.60;;;;;;;11.17;62.51;101672.31;5013223;28;20080;-77
2022/02/21 04:09:48;;;;;;;9.07;4.43;;;;;;;11.09;62.31;101663.25;5013292;28;20057;-78
2022/02/21 04:12:15;;;;;;;16.00;3.63;;;;;;;11.52;62.58;101734.38;4998409;28;20133;-78
2022/02/21 04:14:42;;;;;;;12.57;4.00;;;;;;;11.43;62.45;101727.50;5009813;28;20076;-78
2022/02/21 04:17:08;;;;;;;15.10;4.17;;;;;;;10.80;62.62;101644.91;5012091;28;20080;-77
2022/02/21 04:19:35;;;;;;;15.80;3.67;;;;;;;11.51;62.77;101727.06;5014728;28;20461;-78
2022/02/21 04:22:02;;;;;;;14.30;4.07;;;;;;;11.55;62.46;101730.19;5026057;28;20126;-78
2022/02/21 04:24:29;;;;;;;12.73;3.70;;;;;;;11.53;62.87;101735.19;5017603;28;20128;-78
2022/02/21 04:26:56;;;;;;;12.27;3.83;;;;;;;11.53;62.75;101727.66;5012802;28;20137;-77
2022/02/21 04:29:23;;;;;;;17.53;4.43;;;;;;;11.55;62.82;101727.38;5030139;28;20061;-79
2022/02/21 04:31:50;;;;;;;10.30;4.27;;;;;;;11.56;62.97;101721.53;5027878;28;20478;-79
2022/02/21 04:34:17;;;;;;;19.43;5.17;;;;;;;11.55;63.07;101722.63;5013966;28;20070;-79
2022/02/21 04:36:44;;;;;;;14.97;4.63;;;;;;;11.48;63.08;101705.19;5004853;28;20138;-78
2022/02/21 04:39:11;;;;;;;21.30;4.90;;;;;;;11.53;62.93;101715.63;5030441;28;20049;-77
2022/02/21 04:41:38;;;;;;;23.87;4.53;;;;;;;11.52;62.70;101709.19;5043477;28;20057;-76
2022/02/21 04:44:05;;;;;;;12.53;4.20;;;;;;;11.49;62.98;101706.91;5019275;28;20049;-78
2022/02/21 04:46:33;;;;;;;14.93;4.97;;;;;;;11.52;62.92;101714.78;5016299;28;20578;-77
2022/02/21 04:49:00;;;;;;;14.67;3.73;;;;;;;11.00;63.00;101634.03;5030946;28;20085;-78
2022/02/21 04:51:27;;;;;;;16.73;3.93;;;;;;;11.45;62.87;101725.28;5015774;28;20112;-78
2022/02/21 04:53:54;;;;;;;13.50;3.47;;;;;;;11.45;62.66;101721.63;5028731;28;20470;-78
2022/02/21 04:56:20;;;;;;;12.87;4.37;;;;;;;11.19;62.77;101686.88;5016655;28;20082;-77
2022/02/21 04:58:47;;;;;;;16.80;3.90;;;;;;;11.09;62.47;101663.25;5012849;28;20085;-78
2022/02/21 05:01:14;;;;;;;16.00;4.87;;;;;;;10.98;62.76;101635.44;5012716;28;20132;-77
2022/02/21 05:03:41;;;;;;;19.23;4.67;;;;;;;11.35;62.46;101725.13;5010164;28;20045;-77
2022/02/21 05:06:08;;;;;;;12.10;4.47;;;;;;;11.26;62.43;101718.31;5025749;28;20078;-78
2022/02/21 05:08:35;;;;;;;14.97;4.47;;;;;;;11.25;62.27;101731.44;5014882;28;20112;-78
2022/02/21 05:11:02;;;;;;;15.43;4.90;;;;;;;11.22;62.05;101745.09;5013176;28;20470;-78
2022/02/21 05:13:29;;;;;;;15.20;4.20;;;;;;;11.12;62.53;101734.59;5009676;28;20085;-79
2022/02/21 05:15:56;;;;;;;15.97;4.53;;;;;;;11.00;62.46;101717.06;5004280;28;20053;-78
2022/02/21 05:18:23;;;;;;;15.53;3.80;;;;;;;11.14;62.65;101744.44;5005226;28;20105;-79
2022/02/21 05:20:50;;;;;;;15.70;4.43;;;;;;;11.02;62.65;101726.88;5003636;28;20089;-79
2022/02/21 05:23:17;;;;;;;18.83;5.00;;;;;;;11.02;62.44;101732.47;5012473;28;20049;-78
2022/02/21 05:25:44;;;;;;;10.67;4.87;;;;;;;10.93;62.59;101722.81;5025904;28;20149;-79
2022/02/21 05:28:11;;;;;;;14.60;4.93;;;;;;;11.09;62.58;101760.25;5008904;28;20133;-79
2022/02/21 05:30:39;;;;;;;11.80;4.80;;;;;;;11.07;62.62;101765.25;5012843;28;20081;-77
2022/02/21 05:33:06;;;;;;;11.97;4.67;;;;;;;11.08;62.76;101748.22;5025362;28;20137;-77
2022/02/21 05:35:33;;;;;;;11.73;4.30;;;;;;;11.09;62.57;101744.31;5012418;28;20140;-78
2022/02/21 05:38:00;;;;;;;20.47;3.77;;;;;;;11.10;62.80;101739.56;5009861;28;20046;-78
2022/02/21 05:40:26;;;;;;;12.93;4.47;;;;;;;11.02;63.01;101740.88;5009738;28;20050;-79
2022/02/21 05:42:53;;;;;;;12.80;3.83;;;;;;;10.97;62.92;101726.78;5010349;28;20088;-79
2022/02/21 05:45:20;;;;;;;6.50;2.90;;;;;;;10.97;62.91;101729.59;5012336;28;20081;-79
2022/02/21 05:47:50;;;;;;;8.70;3.47;;;;;;;10.98;62.62;101714.53;5013979;28;20073;-79
2022/02/21 05:50:17;;;;;;;11.40;2.63;;;;;;;11.10;63.03;101742.38;5013699;28;20092;-79
2022/02/21 05:52:43;;;;;;;8.73;2.53;;;;;;;11.08;63.19;101742.66;5012901;28;20118;-79
2022/02/21 05:55:10;;;;;;;12.13;3.70;;;;;;;10.93;63.11;101705.19;5005654;28;20077;-79
2022/02/21 05:57:37;;;;;;;18.07;4.77;;;;;;;10.91;63.24;101708.25;4995455;28;20112;-78
2022/02/21 06:00:13;;;;;;;9.43;3.70;;;;;;;11.14;63.20;101741.63;5021051;28;20084;-77
2022/02/21 06:02:40;;;;;;;16.40;3.43;;;;;;;10.97;63.32;101704.44;5013677;28;20136;-77
2022/02/21 06:05:07;;;;;;;15.20;4.40;;;;;;;11.02;63.30;101712.91;5011709;28;20081;-77
2022/02/21 06:07:34;;;;;;;9.83;3.53;;;;;;;10.79;63.24;101677.59;4995300;28;20081;-78
2022/02/21 06:10:01;;;;;;;8.30;2.87;;;;;;;11.19;63.30;101734.41;5002901;28;20074;-79
2022/02/21 06:12:28;;;;;;;17.47;3.23;;;;;;;11.24;63.03;101745.66;5017313;28;20069;-80
2022/02/21 06:14:56;;;;;;;7.57;3.10;;;;;;;11.24;63.12;101749.31;5006987;28;20130;-78
2022/02/21 06:17:23;;;;;;;11.53;3.10;;;;;;;11.21;63.27;101740.59;5009981;28;20132;-80
2022/02/21 06:19:50;;;;;;;9.23;2.97;;;;;;;11.26;63.06;101761.09;5002998;28;20118;-79
2022/02/21 06:22:17;;;;;;;7.37;3.30;;;;;;;11.28;63.13;101749.63;5013950;28;20128;-79
2022/02/21 06:24:45;;;;;;;11.70;3.13;;;;;;;11.28;62.72;101746.84;5024649;28;20060;-79
2022/02/21 06:27:12;;;;;;;9.50;2.40;;;;;;;11.21;62.58;101741.44;4998423;28;20072;-77
2022/02/21 06:29:39;;;;;;;12.43;3.20;;;;;;;11.20;62.73;101736.09;5013011;28;20544;-78
2022/02/21 06:32:06;;;;;;;9.73;3.40;;;;;;;11.20;62.94;101734.16;5012987;28;20121;-77
2022/02/21 06:34:33;;;;;;;13.53;2.87;;;;;;;10.99;62.73;101693.84;5014847;28;20121;-78
2022/02/21 06:37:00;;;;;;;10.23;3.33;;;;;;;10.98;62.70;101692.16;5020054;28;20073;-80
2022/02/21 06:39:27;;;;;;;8.57;2.93;;;;;;;10.95;62.64;101701.06;5017783;28;20133;-79
2022/02/21 06:41:54;;;;;;;10.43;4.27;;;;;;;11.15;62.57;101737.72;5016772;28;20077;-81
2022/02/21 06:44:21;;;;;;;11.27;4.43;;;;;;;11.11;62.54;101742.13;5018067;28;20046;-78
2022/02/21 06:46:48;;;;;;;10.23;3.83;;;;;;;11.09;61.95;101721.97;5021104;28;21138;-77
2022/02/21 06:49:16;;;;;;;16.63;5.77;;;;;;;11.06;62.24;101735.59;5044072;28;20058;-77
2022/02/21 06:51:46;;;;;;;12.05;4.85;;;;;;;10.97;61.94;101726.78;5028972;28;20861;-79
2022/02/21 06:54:12;;;;;;;9.80;5.53;;;;;;;10.75;61.98;101703.53;5032740;28;20051;-80
2022/02/21 06:56:40;;;;;;;16.43;7.17;;;;;;;10.76;61.98;101685.66;5036145;28;20038;-78
2022/02/21 06:59:07;;;;;;;21.90;6.17;;;;;;;10.85;62.16;101710.13;5034004;28;20038;-76
2022/02/21 07:01:34;;;;;;;18.80;5.67;;;;;;;10.74;62.11;101699.88;5021772;28;20042;-81
2022/02/21 07:04:01;;;;;;;8.53;4.53;;;;;;;10.90;62.44;101723.31;5011203;28;20046;-77
2022/02/21 07:06:28;;;;;;;13.50;4.07;;;;;;;10.81;62.47;101708.94;5030005;28;20053;-76
2022/02/21 07:08:55;;;;;;;8.10;3.07;;;;;;;10.68;62.57;101692.50;5026302;28;20053;-80
2022/02/21 07:11:22;;;;;;;20.17;3.60;;;;;;;10.86;62.39;101708.16;5025322;28;20045;-76
2022/02/21 07:13:50;;;;;;;9.73;3.23;;;;;;;10.93;62.56;101728.41;5030329;28;20045;-74
2022/02/21 07:16:17;;;;;;;10.07;3.93;;;;;;;10.90;62.55;101728.91;5034129;28;20080;-74
2022/02/21 07:18:44;;;;;;;13.20;4.07;;;;;;;10.76;62.64;101713.59;5021835;28;20088;-74
2022/02/21 07:21:11;;;;;;;11.43;2.87;;;;;;;10.81;62.90;101727.66;5030399;28;20057;-74
2022/02/21 07:23:38;;;;;;;7.93;3.33;;;;;;;10.87;62.49;101746.19;5025424;28;20053;-74
2022/02/21 07:26:05;;;;;;;15.07;3.53;;;;;;;10.65;62.46;101716.19;5026422;28;20053;-76
2022/02/21 07:28:32;;;;;;;10.53;3.23;;;;;;;10.91;62.39;101758.56;5019316;28;20052;-74
2022/02/21 07:30:59;;;;;;;18.10;5.87;;;;;;;10.89;62.51;101763.56;5020837;28;20097;-74
2022/02/21 07:33:26;;;;;;;12.80;4.83;;;;;;;10.94;62.46;101769.25;5015355;28;20117;-74
2022/02/21 07:35:56;;;;;;;22.90;4.93;;;;;;;10.93;62.72;101772.28;5018154;28;20073;-74
2022/02/21 07:38:23;;;;;;;12.77;4.75;;;;;;;10.98;62.37;101781.59;5028361;28;20053;-75
2022/02/21 07:40:51;;;;;;;10.90;3.67;;;;;;;10.97;62.51;101779.91;5038959;28;20096;-75
2022/02/21 07:43:18;;;;;;;7.47;3.50;;;;;;;10.77;62.69;101738.50;5037180;28;20037;-73
2022/02/21 07:45:45;;;;;;;8.63;2.37;;;;;;;11.11;62.75;101767.31;5037221;28;20046;-74
2022/02/21 07:48:12;;;;;;;15.27;3.43;;;;;;;11.24;62.95;101762.44;5015553;28;20569;-72
2022/02/21 07:50:45;;;;;;;4.97;2.70;;;;;;;11.51;63.06;101768.16;5012065;28;20078;-78
2022/02/21 07:53:12;;;;;;;7.90;3.00;;;;;;;11.81;62.66;101767.75;5008912;28;20053;-74
2022/02/21 07:55:39;;;;;;;11.80;5.00;;;;;;;11.90;62.62;101754.19;5022534;28;20503;-77
2022/02/21 07:58:06;;;;;;;9.37;3.67;;;;;;;12.19;62.36;101788.44;5008518;28;20112;-75
2022/02/21 08:00:33;;;;;;;6.13;3.77;;;;;;;12.26;62.13;101786.28;5010754;28;20133;-76
2022/02/21 08:03:00;;;;;;;7.00;3.80;;;;;;;12.42;61.98;101793.75;5010645;28;20053;-76
2022/02/21 08:05:27;;;;;;;13.53;5.60;;;;;;;12.44;61.83;101780.31;5012655;28;20042;-77
2022/02/21 08:07:54;;;;;;;12.33;4.97;;;;;;;12.79;61.67;101812.66;5019190;28;20104;-77
2022/02/21 08:10:21;;;;;;;8.73;4.43;;;;;;;12.96;61.31;101816.19;5012149;28;20046;-76
2022/02/21 08:12:51;;;;;;;11.03;4.47;;;;;;;13.16;61.33;101803.44;5010508;28;20504;-75
2022/02/21 08:15:18;;;;;;;9.10;3.90;;;;;;;13.26;60.67;101783.91;5002725;28;20081;-77
2022/02/21 08:17:46;;;;;;;10.10;3.20;;;;;;;13.66;60.30;101803.00;5000349;28;20073;-76
2022/02/21 08:20:20;;;;;;;8.47;3.47;;;;;;;13.92;59.94;101809.63;5001399;28;20073;-76
2022/02/21 08:22:47;;;;;;;10.33;3.90;;;;;;;14.13;59.52;101793.72;5006398;28;20061;-76
2022/02/21 08:25:16;;;;;;;11.63;3.87;;;;;;;14.27;59.24;101793.22;5009773;28;20141;-76
2022/02/21 08:27:45;;;;;;;9.07;3.33;;;;;;;14.67;58.50;101818.69;5008862;28;20109;-76
2022/02/21 08:30:17;;;;;;;10.70;3.60;;;;;;;14.64;57.98;101779.03;5000296;28;20089;-76
2022/02/21 08:32:44;;;;;;;7.90;4.03;;;;;;;15.12;57.22;101827.47;5009994;28;20133;-75
2022/02/21 08:35:13;;;;;;;9.63;5.00;;;;;;;15.29;56.81;101828.03;5004356;28;20137;-79
2022/02/21 08:37:43;;;;;;;9.40;3.57;;;;;;;15.55;56.09;101833.63;5010759;28;20051;-76
2022/02/21 08:40:12;;;;;;;14.13;4.63;;;;;;;15.81;55.58;101838.16;5006683;28;20161;-77
2022/02/21 08:42:43;;;;;;;7.17;3.33;;;;;;;16.06;54.92;101836.41;5009248;28;20050;-76
2022/02/21 08:45:11;;;;;;;16.77;4.00;;;;;;;16.22;54.21;101818.31;5011183;28;20088;-77
2022/02/21 08:47:39;;;;;;;9.20;3.30;;;;;;;16.49;53.64;101828.34;5010203;28;20133;-77
2022/02/21 08:50:10;;;;;;;17.02;3.58;;;;;;;16.56;53.43;101829.72;5018138;28;20045;-76
2022/02/21 08:52:41;;;;;;;8.60;3.33;;;;;;;16.74;53.03;101847.97;5013028;28;20391;-76
2022/02/21 08:55:10;;;;;;;9.32;3.67;;;;;;;16.94;52.85;101841.38;5017390;28;20074;-77
2022/02/21 08:57:38;;;;;;;9.20;2.73;;;;;;;16.99;52.76;101826.38;5018468;28;20074;-75
2022/02/21 09:00:07;;;;;;;9.07;3.85;;;;;;;17.52;51.81;101835.84;5008739;28;20330;-73
2022/02/21 09:02:34;;;;;;;14.20;4.47;;;;;;;18.02;50.99;101849.78;5004899;28;20053;-75
2022/02/21 09:05:25;;;;;;;15.02;4.40;;;;;;;18.46;50.45;101857.16;5006045;28;20042;-75
2022/02/21 09:07:53;;;;;;;8.85;3.53;;;;;;;18.31;49.92;101823.44;5010106;28;20045;-76
2022/02/21 09:10:23;;;;;;;8.73;3.80;;;;;;;18.27;49.35;101822.34;5009614;28;20061;-87
2022/02/21 09:12:50;;;;;;;;;;;;;;;18.43;51.08;101860.63;5008929;28;20474;-77
2022/02/21 09:15:19;;;;;;;17.52;5.30;;;;;;;18.35;49.82;101816.84;5007876;28;19925;-76
2022/02/21 09:17:47;;;;;;;11.55;4.00;;;;;;;18.66;49.18;101854.06;5011603;28;20096;-75
2022/02/21 09:20:15;;;;;;;14.07;4.03;;;;;;;18.74;49.06;101860.25;5006606;28;20084;-75
2022/02/21 09:22:43;;;;;;;12.27;4.13;;;;;;;18.90;48.57;101848.38;5007309;28;20532;-72
2022/02/21 09:25:10;;;;;;;10.52;4.65;;;;;;;19.06;48.04;101860.34;5009227;28;20130;-75
2022/02/21 09:27:37;;;;;;;8.73;3.88;;;;;;;19.27;47.91;101860.00;5012259;28;20139;-72
2022/02/21 09:30:06;;;;;;;10.30;3.95;;;;;;;19.34;47.37;101840.63;5005048;28;20073;-75
2022/02/21 09:32:33;;;;;;;16.45;4.10;;;;;;;19.56;47.36;101851.34;5004927;28;20546;-77
2022/02/21 09:35:00;;;;;;;10.77;4.07;;;;;;;19.59;46.54;101833.72;5001518;28;20061;-76
2022/02/21 09:37:27;;;;;;;11.65;4.53;;;;;;;19.87;45.73;101861.00;5029015;28;20089;-74
2022/02/21 09:39:55;;;;;;;12.23;4.28;;;;;;;19.77;45.86;101838.50;5002719;28;20061;-72
2022/02/21 09:42:27;;;;;;;8.48;3.90;;;;;;;19.85;45.43;101851.09;5014526;28;20077;-74
2022/02/21 09:44:54;;;;;;;14.60;3.97;;;;;;;19.82;45.32;101851.72;5011753;28;20149;-76
2022/02/21 09:47:23;;;;;;;8.50;3.38;;;;;;;20.02;45.04;101851.34;5002913;28;20104;-75
2022/02/21 09:49:53;;;;;;;15.38;3.78;;;;;;;20.23;44.67;101842.44;5005815;28;20085;-75
2022/02/21 09:52:19;;;;;;;;;;;;;;;20.34;46.34;101849.56;5001847;28;20038;-75
2022/02/21 09:54:46;;;;;;;8.05;3.35;;;;;;;20.73;44.60;101862.41;5000786;28;20700;-74
2022/02/21 09:57:15;;;;;;;9.65;3.47;;;;;;;20.80;43.78;101840.09;5007834;28;20458;-75
2022/02/21 09:59:42;;;;;;;8.32;3.47;;;;;;;20.56;43.48;101821.31;5006273;28;20093;-74
2022/02/21 10:02:18;;;;;;;11.90;4.30;;;;;;;20.52;43.55;101843.00;5009261;28;20117;-74
2022/02/21 10:04:45;;;;;;;10.20;3.13;;;;;;;20.44;43.86;101851.34;5009328;28;20096;-77
2022/02/21 10:07:29;;;;;;;13.75;4.20;;;;;;;20.28;43.54;101828.16;5004671;28;20054;-76
2022/02/21 10:09:59;;;;;;;10.38;3.92;;;;;;;20.29;43.68;101838.34;5011870;28;20541;-81
2022/02/21 10:12:28;;;;;;;10.10;3.40;;;;;;;20.36;43.47;101862.28;5011570;28;20127;-81
2022/02/21 10:15:14;;;;;;;12.65;3.72;;;;;;;20.19;43.60;101832.88;5028586;28;20046;-79
2022/02/21 10:17:41;;;;;;;7.70;2.95;;;;;;;20.32;43.53;101843.38;5026676;28;20075;-71
2022/02/21 10:20:09;;;;;;;10.05;3.63;;;;;;;20.18;43.50;101825.53;5020341;28;20077;-71
2022/02/21 10:22:36;;;;;;;9.85;3.33;;;;;;;20.24;43.26;101847.81;5014006;28;20085;-71
2022/02/21 10:25:18;;;;;;;7.13;3.90;;;;;;;20.17;43.53;101844.56;5014029;28;20078;-73
2022/02/21 10:27:45;;;;;;;10.27;3.30;;;;;;;19.93;43.56;101812.69;5011141;28;20066;-72
2022/02/21 10:30:19;;;;;;;10.57;3.88;;;;;;;20.17;43.32;101818.16;5009555;28;20096;-73
2022/02/21 10:33:11;;;;;;;10.95;3.70;;;;;;;20.48;43.15;101839.06;5002914;28;20053;-70
2022/02/21 10:35:39;;;;;;;8.57;2.70;;;;;;;20.51;43.13;101840.44;5006690;28;20486;-73
2022/02/21 10:38:09;;;;;;;13.25;3.63;;;;;;;20.64;42.83;101850.94;5004323;28;20413;-76
2022/02/21 10:41:08;;;;;;;5.63;3.08;;;;;;;20.64;42.92;101831.09;5027609;28;20061;-72
2022/02/21 10:43:35;;;;;;;7.35;3.40;;;;;;;20.69;42.67;101825.31;5031306;28;20052;-76
2022/02/21 10:46:15;;;;;;;10.05;4.32;;;;;;;21.09;42.20;101844.53;5018541;28;20544;-75
2022/02/21 10:48:43;;;;;;;8.45;3.20;;;;;;;21.18;42.11;101842.63;5021037;28;20088;-76
2022/02/21 10:51:50;;;;;;;10.20;3.88;;;;;;;21.08;42.25;101794.59;5020222;28;20046;-75
2022/02/21 10:54:26;;;;;;;5.75;2.95;;;;;;;21.70;41.73;101851.56;5019379;28;20046;-74
2022/02/21 10:56:53;;;;;;;5.47;2.85;;;;;;;21.65;41.66;101806.22;5011691;28;20099;-76
2022/02/21 10:59:21;;;;;;;7.50;3.25;;;;;;;22.34;40.73;101852.09;5012705;28;20548;-74
2022/02/21 11:01:48;;;;;;;9.10;3.38;;;;;;;22.56;40.12;101839.75;5007010;28;21194;-75
2022/02/21 11:04:17;;;;;;;7.93;2.58;;;;;;;22.84;39.96;101837.50;5010245;28;20089;-75
2022/02/21 11:06:45;;;;;;;3.97;3.13;;;;;;;23.09;39.32;101850.09;5011530;28;20096;-75
2022/02/21 11:09:13;;;;;;;9.93;3.95;;;;;;;23.32;39.23;101830.81;5015203;28;20137;-76
2022/02/21 11:11:50;;;;;;;8.75;3.40;;;;;;;23.77;39.11;101847.56;5013136;28;20065;-76
2022/02/21 11:14:22;;;;;;;10.38;3.13;;;;;;;23.99;38.41;101819.97;5014755;28;20153;-76
2022/02/21 11:16:50;;;;;;;6.47;2.72;;;;;;;24.57;37.50;101835.50;5009004;28;20054;-77
2022/02/21 11:19:22;;;;;;;5.68;2.70;;;;;;;24.92;36.73;101810.38;5012858;28;20054;-76
2022/02/21 11:22:06;;;;;;;5.65;2.78;;;;;;;25.41;36.66;101842.13;5011115;28;20133;-77
2022/02/21 11:24:35;;;;;;;8.68;3.15;;;;;;;25.71;35.77;101824.84;5008407;28;20133;-74